Aberdeen, United Kingdom

18:51 BST dnia 24-sierpień-2016 (GMT +0100)
Christie Grange | | Change Station

Wysokość 465 ft 57.18 °N, 2.21 °W | Updated 4 minutes ago

Scattered Clouds
obłoki zanikające
58.8 ° F
Odczuwalna 58.8 ° F
Płn.
0.6
Wiatr zmienny Wiatr od PnPnWs
Gusts 1.9 mph

Dziś
Wysoka -- | Niska -- ° F
--% Prawdop. opadów
Wczoraj
Wysoka -- | Niska -- ° F
Precip. -- cali
Ciśnienie 30.15 cali
Widzialność 6.2 mil
chmury obłoki zanikające 2700 ft
Punkt rosy 57 ° F
Wilgotność 95%
Opady deszczu 0.01 cali
grubość pokrywy śnieżnej Niedostępne.
5:54 AM 8:26 PM
Zmniejszający się Księżyc, 55% visible
METAR EGPD 241720Z 11007KT 9999 SCT027 15/12 Q1021 NOSIG
Ciśnienie 30.15 cali
Widzialność 6.2 mil
chmury obłoki zanikające 2700 ft
Punkt rosy 57 ° F
Wilgotność 95%
Opady deszczu 0.01 cali
grubość pokrywy śnieżnej Niedostępne.
5:54 AM 8:26 PM
Zmniejszający się Księżyc, 55% visible
METAR EGPD 241720Z 11007KT 9999 SCT027 15/12 Q1021 NOSIG

10-Day Weather Forecast

×

Almanac

Astronomia

Aug. 24, 2016 Wschód Zachów
Aktualny czas
Zmierzch cywilny
Zmierzch żeglarski
świt/zmierzch astronomiczny
Księżyc
całkowite oświetlenie
Długość dnia
Tomorrow will be .
, % of the Moon is Illuminated

Dzisiejsze ekstrema

Country Highs Country Lows

Community

WunderPhotos

Upload Photos

1,934,661 zdjęcia zostały przesłane!

WunderBlog® & News

Nearby

Jakość powietrza

  Jakość powietrza czynnik AQ Zanieczyszczenie
Not available.

Głębokość pokrywy śnieżnej

Station Depth n.p.m.

Aktywność sejsmiczna

Miejscowość Distance Mag. Time & Date
Minimum magnitude displayed is 2.5.

Temperatury wody na wybrzeżu

Miejsce Temperatura

Stations

Najbliższa stacja pogodowa

Lokalizacja stacji Temp. czynnik chłodzący wiatru Punkt rosy Wilgotność Wiatr Precip. Wysokość Uaktualniono Typ